Lindsay, MT (59339)

8:56 PM MDT on August 28, 2014 (GMT -0600)
MesoWest LINDSAY 1 MT US SCAN | Change Station
CLOSE
Current Station
Personal Weather Station
Location: Lindsay, MT
Elevation: 2680 ft
Nearby Weather Stations

Elev 2680 ft 47.21 °N, 105.19 °W | Updated 56 minutes ago

Clear
Clear
73 °F
Feels Like 77 °F
N
5
Wind Variable Wind from West
Gusts 0.0 mph

Today
High -- | Low -- °F
--% Chance of Precip.
Yesterday
High -- | Low -- °F
Precip. -- in
6:14 AM 7:48 PM
Waxing Crescent, 11% visible
Pressure 29.84 in
Visibility 10.0 miles
Clouds Clear
Heat Index 77 °F
Dew Point 53 °F
Humidity 49%
Rainfall -999.00 in
Snow Depth Not available.
UV 0 out of 12
Pollen 9.40 out of 12
Air Quality Not available.
Flu Activity Not available.
METAR KGDV 290235Z AUTO 33008KT 10SM CLR 22/12 A2984 RMK AO1

More Conditions Fewer Conditions

Pressure 29.84 in
Visibility 10.0 miles
Clouds Clear
Heat Index 77 °F
Dew Point 53 °F
Humidity 49%
Rainfall -999.00 in
Snow Depth Not available.
UV 0 out of 12
Pollen 9.40 out of 12
Air Quality Not available.
Flu Activity Not available.
METAR KGDV 290235Z AUTO 33008KT 10SM CLR 22/12 A2984 RMK AO1

More Conditions Fewer Conditions

10-Day Weather Forecast

Almanac

Astronomy

Aug. 28, 2014 Rise Set
Actual Time 6:14 AM MDT 7:48 PM MDT
Civil Twilight 5:42 AM MDT 8:20 PM MDT
Nautical Twilight 5:03 AM MDT 8:59 PM MDT
Astronomical Twilight 4:21 AM MDT 9:40 PM MDT
Moon 9:24 AM MDT (8/28) 8:57 PM MDT (8/28)
Length of Visible Light 14h 37m
Length of Day
13h 33m
Tomorrow will be 3m 14s shorter.
Waxing Crescent, 11% of the Moon is Illuminated
Today
Waxing Crescent
Sep 2
First Quarter
Sep 8
Full
Sep 15
Last Quarter
Sep 24
New

Today's Extremes

State Highs State Lows

Community

WunderPhotos

Upload Photos

1,748,133 photos uploaded!

Nearby

Snow Depth

Station Depth Elevation
Crystal Lake 0 in 6050 ft
Cole Creek 0 in 7850 ft
Spur Park 0 in 8100 ft
Porcupine 0 in 6500 ft
Onion Park 0 in 7410 ft

Earthquake Activity

City Distance Mag. Time & Date
No recent earthquake activity has been reported nearby.
Minimum magnitude displayed is 2.5.

Coastal Water Temperatures

Place Temperature
No Stations Reporting

Nearby Weather Stations